sensor_id;sensor_type;location;lat;lon;timestamp;P1;durP1;ratioP1;P2;durP2;ratioP2
32788;SDS011;19141;48.980;8.410;2023-02-01T05:22:32;4.55;;;2.88;;
32788;SDS011;19141;48.980;8.410;2023-02-01T05:24:57;6.80;;;2.85;;
32788;SDS011;19141;48.980;8.410;2023-02-01T05:27:23;9.95;;;2.72;;
32788;SDS011;19141;48.980;8.410;2023-02-01T05:29:48;8.73;;;3.10;;
32788;SDS011;19141;48.980;8.410;2023-02-01T05:32:13;6.90;;;2.60;;
32788;SDS011;19141;48.980;8.410;2023-02-01T05:34:39;10.07;;;3.75;;
32788;SDS011;19141;48.980;8.410;2023-02-01T05:37:05;7.72;;;3.47;;
32788;SDS011;19141;48.980;8.410;2023-02-01T05:39:30;7.07;;;2.90;;
32788;SDS011;19141;48.980;8.410;2023-02-01T05:41:55;14.77;;;3.90;;
32788;SDS011;19141;48.980;8.410;2023-02-01T05:44:21;5.10;;;2.85;;
32788;SDS011;19141;48.980;8.410;2023-02-01T05:46:46;13.88;;;4.75;;
32788;SDS011;19141;48.980;8.410;2023-02-01T05:49:12;8.13;;;3.75;;
32788;SDS011;19141;48.980;8.410;2023-02-01T05:51:37;6.43;;;3.30;;
32788;SDS011;19141;48.980;8.410;2023-02-01T05:54:03;6.22;;;3.17;;
32788;SDS011;19141;48.980;8.410;2023-02-01T05:56:28;9.57;;;3.42;;
32788;SDS011;19141;48.980;8.410;2023-02-01T05:58:53;6.70;;;2.83;;
32788;SDS011;19141;48.980;8.410;2023-02-01T06:01:19;8.05;;;3.30;;
32788;SDS011;19141;48.980;8.410;2023-02-01T06:03:45;4.00;;;2.75;;
32788;SDS011;19141;48.980;8.410;2023-02-01T06:06:10;9.20;;;3.25;;
32788;SDS011;19141;48.980;8.410;2023-02-01T06:08:35;5.47;;;2.97;;
32788;SDS011;19141;48.980;8.410;2023-02-01T06:11:02;5.43;;;2.97;;
32788;SDS011;19141;48.980;8.410;2023-02-01T06:15:54;5.78;;;2.97;;
32788;SDS011;19141;48.980;8.410;2023-02-01T06:18:22;6.32;;;2.80;;
32788;SDS011;19141;48.980;8.410;2023-02-01T06:20:54;8.25;;;3.35;;
32788;SDS011;19141;48.980;8.410;2023-02-01T06:23:20;6.72;;;2.75;;
32788;SDS011;19141;48.980;8.410;2023-02-01T06:25:52;12.35;;;2.95;;
32788;SDS011;19141;48.980;8.410;2023-02-01T06:28:24;6.90;;;2.85;;
32788;SDS011;19141;48.980;8.410;2023-02-01T06:30:49;5.32;;;2.55;;
32788;SDS011;19141;48.980;8.410;2023-02-01T06:33:15;8.90;;;2.58;;
32788;SDS011;19141;48.980;8.410;2023-02-01T06:35:41;7.03;;;3.35;;
32788;SDS011;19141;48.980;8.410;2023-02-01T06:38:09;6.30;;;2.67;;
32788;SDS011;19141;48.980;8.410;2023-02-01T06:40:36;4.45;;;2.40;;
32788;SDS011;19141;48.980;8.410;2023-02-01T06:43:02;4.43;;;2.90;;
32788;SDS011;19141;48.980;8.410;2023-02-01T06:45:27;7.65;;;2.97;;
32788;SDS011;19141;48.980;8.410;2023-02-01T06:47:53;8.25;;;3.17;;
32788;SDS011;19141;48.980;8.410;2023-02-01T06:50:18;9.82;;;3.33;;
32788;SDS011;19141;48.980;8.410;2023-02-01T06:52:43;6.45;;;2.65;;
32788;SDS011;19141;48.980;8.410;2023-02-01T06:55:09;5.68;;;2.13;;
32788;SDS011;19141;48.980;8.410;2023-02-01T06:57:34;3.80;;;2.20;;
32788;SDS011;19141;48.980;8.410;2023-02-01T07:00:01;8.52;;;3.05;;
32788;SDS011;19141;48.980;8.410;2023-02-01T07:02:28;4.68;;;2.38;;
32788;SDS011;19141;48.980;8.410;2023-02-01T07:04:53;5.90;;;2.88;;
32788;SDS011;19141;48.980;8.410;2023-02-01T07:07:19;7.00;;;3.30;;
32788;SDS011;19141;48.980;8.410;2023-02-01T07:09:45;10.20;;;3.33;;
32788;SDS011;19141;48.980;8.410;2023-02-01T07:12:10;5.78;;;3.00;;
32788;SDS011;19141;48.980;8.410;2023-02-01T07:14:36;8.13;;;2.65;;
32788;SDS011;19141;48.980;8.410;2023-02-01T07:17:02;6.18;;;2.90;;
32788;SDS011;19141;48.980;8.410;2023-02-01T07:19:27;6.40;;;2.60;;
32788;SDS011;19141;48.980;8.410;2023-02-01T07:21:53;4.93;;;2.72;;
32788;SDS011;19141;48.980;8.410;2023-02-01T07:24:18;5.07;;;2.28;;
32788;SDS011;19141;48.980;8.410;2023-02-01T07:26:43;6.95;;;2.63;;
32788;SDS011;19141;48.980;8.410;2023-02-01T07:29:09;4.13;;;2.33;;
32788;SDS011;19141;48.980;8.410;2023-02-01T07:31:34;6.28;;;3.40;;
32788;SDS011;19141;48.980;8.410;2023-02-01T07:34:00;6.45;;;3.17;;
32788;SDS011;19141;48.980;8.410;2023-02-01T07:36:27;7.05;;;3.35;;
32788;SDS011;19141;48.980;8.410;2023-02-01T07:38:53;5.50;;;3.20;;
32788;SDS011;19141;48.980;8.410;2023-02-01T07:41:18;9.23;;;3.75;;
32788;SDS011;19141;48.980;8.410;2023-02-01T07:43:44;3.35;;;2.55;;
32788;SDS011;19141;48.980;8.410;2023-02-01T07:46:09;3.53;;;2.30;;
32788;SDS011;19141;48.980;8.410;2023-02-01T07:48:36;4.43;;;2.42;;
32788;SDS011;19141;48.980;8.410;2023-02-01T07:51:03;4.80;;;2.40;;
32788;SDS011;19141;48.980;8.410;2023-02-01T07:53:30;7.50;;;2.72;;
32788;SDS011;19141;48.980;8.410;2023-02-01T07:55:57;6.90;;;3.20;;
32788;SDS011;19141;48.980;8.410;2023-02-01T07:58:23;9.10;;;2.05;;
32788;SDS011;19141;48.980;8.410;2023-02-01T08:00:49;5.28;;;2.63;;
32788;SDS011;19141;48.980;8.410;2023-02-01T18:51:38;7.38;;;1.70;;
32788;SDS011;19141;48.980;8.410;2023-02-01T18:54:03;3.70;;;1.15;;
32788;SDS011;19141;48.980;8.410;2023-02-01T18:56:29;5.00;;;1.15;;
32788;SDS011;19141;48.980;8.410;2023-02-01T18:58:54;1.65;;;0.85;;
32788;SDS011;19141;48.980;8.410;2023-02-01T19:01:21;5.83;;;1.43;;
32788;SDS011;19141;48.980;8.410;2023-02-01T19:03:47;1.58;;;1.05;;
32788;SDS011;19141;48.980;8.410;2023-02-01T19:06:13;2.53;;;1.10;;
32788;SDS011;19141;48.980;8.410;2023-02-01T19:08:39;2.17;;;1.30;;
32788;SDS011;19141;48.980;8.410;2023-02-01T19:11:05;3.70;;;1.13;;
32788;SDS011;19141;48.980;8.410;2023-02-01T19:13:33;1.95;;;0.88;;
32788;SDS011;19141;48.980;8.410;2023-02-01T19:16:03;8.20;;;1.30;;
32788;SDS011;19141;48.980;8.410;2023-02-01T19:18:30;3.92;;;1.23;;
32788;SDS011;19141;48.980;8.410;2023-02-01T19:20:56;5.75;;;1.20;;
32788;SDS011;19141;48.980;8.410;2023-02-01T19:23:27;1.52;;;0.88;;
32788;SDS011;19141;48.980;8.410;2023-02-01T19:25:52;3.88;;;1.33;;
32788;SDS011;19141;48.980;8.410;2023-02-01T19:28:18;3.78;;;1.42;;
32788;SDS011;19141;48.980;8.410;2023-02-01T19:30:43;1.58;;;1.13;;
32788;SDS011;19141;48.980;8.410;2023-02-01T19:33:09;3.67;;;1.15;;
32788;SDS011;19141;48.980;8.410;2023-02-01T19:35:34;1.70;;;1.33;;
32788;SDS011;19141;48.980;8.410;2023-02-01T19:38:00;3.33;;;1.23;;
32788;SDS011;19141;48.980;8.410;2023-02-01T19:40:25;1.38;;;1.10;;
32788;SDS011;19141;48.980;8.410;2023-02-01T19:42:51;2.47;;;1.67;;
32788;SDS011;19141;48.980;8.410;2023-02-01T19:45:17;5.38;;;1.38;;
32788;SDS011;19141;48.980;8.410;2023-02-01T19:47:43;3.35;;;1.40;;
32788;SDS011;19141;48.980;8.410;2023-02-01T19:50:10;4.30;;;1.15;;
32788;SDS011;19141;48.980;8.410;2023-02-01T19:52:40;1.58;;;1.20;;
32788;SDS011;19141;48.980;8.410;2023-02-01T19:55:06;7.38;;;1.30;;
32788;SDS011;19141;48.980;8.410;2023-02-01T19:57:32;1.70;;;1.23;;
32788;SDS011;19141;48.980;8.410;2023-02-01T19:59:58;1.52;;;1.30;;
32788;SDS011;19141;48.980;8.410;2023-02-01T20:02:23;1.50;;;1.02;;
32788;SDS011;19141;48.980;8.410;2023-02-01T20:04:52;3.22;;;1.33;;
32788;SDS011;19141;48.980;8.410;2023-02-01T20:07:18;1.63;;;1.17;;
32788;SDS011;19141;48.980;8.410;2023-02-01T20:09:43;3.10;;;1.05;;
32788;SDS011;19141;48.980;8.410;2023-02-01T20:12:09;1.92;;;1.00;;
32788;SDS011;19141;48.980;8.410;2023-02-01T20:14:38;4.10;;;1.17;;
32788;SDS011;19141;48.980;8.410;2023-02-01T20:17:04;1.67;;;1.15;;
32788;SDS011;19141;48.980;8.410;2023-02-01T20:19:32;4.28;;;1.15;;
32788;SDS011;19141;48.980;8.410;2023-02-01T20:21:57;5.63;;;1.25;;
32788;SDS011;19141;48.980;8.410;2023-02-01T20:24:24;3.47;;;1.25;;
32788;SDS011;19141;48.980;8.410;2023-02-01T20:26:50;2.28;;;1.17;;
32788;SDS011;19141;48.980;8.410;2023-02-01T20:29:35;2.45;;;1.83;;
32788;SDS011;19141;48.980;8.410;2023-02-01T20:32:00;1.52;;;1.00;;
32788;SDS011;19141;48.980;8.410;2023-02-01T20:34:26;2.00;;;1.20;;
32788;SDS011;19141;48.980;8.410;2023-02-01T20:36:51;2.58;;;1.10;;
32788;SDS011;19141;48.980;8.410;2023-02-01T20:39:17;3.35;;;1.92;;
32788;SDS011;19141;48.980;8.410;2023-02-01T20:41:42;1.67;;;1.20;;
32788;SDS011;19141;48.980;8.410;2023-02-01T20:44:08;4.80;;;1.38;;
32788;SDS011;19141;48.980;8.410;2023-02-01T20:46:33;6.72;;;1.52;;
32788;SDS011;19141;48.980;8.410;2023-02-01T20:48:59;3.92;;;1.15;;
32788;SDS011;19141;48.980;8.410;2023-02-01T20:51:24;4.22;;;1.52;;
32788;SDS011;19141;48.980;8.410;2023-02-01T20:53:49;2.30;;;1.30;;
32788;SDS011;19141;48.980;8.410;2023-02-01T20:56:16;5.07;;;1.80;;
32788;SDS011;19141;48.980;8.410;2023-02-01T20:58:42;6.55;;;2.10;;
32788;SDS011;19141;48.980;8.410;2023-02-01T21:01:07;1.95;;;1.45;;
32788;SDS011;19141;48.980;8.410;2023-02-01T21:03:33;3.30;;;1.63;;
32788;SDS011;19141;48.980;8.410;2023-02-01T21:05:59;2.63;;;1.05;;
32788;SDS011;19141;48.980;8.410;2023-02-01T21:08:27;4.38;;;1.65;;
32788;SDS011;19141;48.980;8.410;2023-02-01T21:11:03;3.00;;;1.00;;
32788;SDS011;19141;48.980;8.410;2023-02-01T21:13:32;3.30;;;1.30;;
32788;SDS011;19141;48.980;8.410;2023-02-01T21:16:00;2.42;;;1.50;;
32788;SDS011;19141;48.980;8.410;2023-02-01T21:18:26;2.33;;;1.20;;
32788;SDS011;19141;48.980;8.410;2023-02-01T21:20:52;3.53;;;1.40;;
32788;SDS011;19141;48.980;8.410;2023-02-01T21:23:17;4.10;;;2.13;;
32788;SDS011;19141;48.980;8.410;2023-02-01T21:25:43;6.15;;;1.38;;
32788;SDS011;19141;48.980;8.410;2023-02-01T21:28:09;6.50;;;1.63;;
32788;SDS011;19141;48.980;8.410;2023-02-01T21:30:35;4.35;;;1.80;;
32788;SDS011;19141;48.980;8.410;2023-02-01T21:33:01;1.35;;;0.95;;
32788;SDS011;19141;48.980;8.410;2023-02-01T21:35:27;2.15;;;1.20;;
32788;SDS011;19141;48.980;8.410;2023-02-01T21:37:52;4.30;;;1.65;;
32788;SDS011;19141;48.980;8.410;2023-02-01T21:40:18;1.02;;;0.85;;
32788;SDS011;19141;48.980;8.410;2023-02-01T21:42:43;2.88;;;0.82;;
32788;SDS011;19141;48.980;8.410;2023-02-01T21:45:10;4.25;;;1.35;;
32788;SDS011;19141;48.980;8.410;2023-02-01T21:47:37;2.90;;;1.17;;
32788;SDS011;19141;48.980;8.410;2023-02-01T21:50:04;2.63;;;1.65;;
32788;SDS011;19141;48.980;8.410;2023-02-01T21:52:31;8.05;;;1.67;;
32788;SDS011;19141;48.980;8.410;2023-02-01T21:54:57;3.60;;;1.23;;
32788;SDS011;19141;48.980;8.410;2023-02-01T21:57:27;5.13;;;1.65;;
32788;SDS011;19141;48.980;8.410;2023-02-01T21:59:53;2.47;;;1.38;;
32788;SDS011;19141;48.980;8.410;2023-02-01T22:02:19;2.17;;;1.67;;
32788;SDS011;19141;48.980;8.410;2023-02-01T22:04:44;3.65;;;1.50;;
32788;SDS011;19141;48.980;8.410;2023-02-01T22:07:10;3.17;;;1.40;;
32788;SDS011;19141;48.980;8.410;2023-02-01T22:09:36;1.52;;;1.17;;
32788;SDS011;19141;48.980;8.410;2023-02-01T22:12:02;2.47;;;1.20;;
32788;SDS011;19141;48.980;8.410;2023-02-01T22:14:27;4.10;;;1.63;;
32788;SDS011;19141;48.980;8.410;2023-02-01T22:16:53;2.88;;;1.20;;
32788;SDS011;19141;48.980;8.410;2023-02-01T22:19:18;2.97;;;1.38;;
32788;SDS011;19141;48.980;8.410;2023-02-01T22:21:44;2.28;;;1.15;;
32788;SDS011;19141;48.980;8.410;2023-02-01T22:24:12;3.80;;;1.45;;
32788;SDS011;19141;48.980;8.410;2023-02-01T22:26:40;3.08;;;1.05;;
32788;SDS011;19141;48.980;8.410;2023-02-01T22:29:06;6.38;;;1.65;;
32788;SDS011;19141;48.980;8.410;2023-02-01T22:31:32;1.15;;;1.05;;
32788;SDS011;19141;48.980;8.410;2023-02-01T22:33:57;4.32;;;1.42;;
32788;SDS011;19141;48.980;8.410;2023-02-01T22:36:23;1.45;;;1.33;;
32788;SDS011;19141;48.980;8.410;2023-02-01T22:38:49;4.40;;;1.20;;
32788;SDS011;19141;48.980;8.410;2023-02-01T22:41:16;2.63;;;1.48;;
32788;SDS011;19141;48.980;8.410;2023-02-01T22:43:42;2.58;;;1.25;;
32788;SDS011;19141;48.980;8.410;2023-02-01T22:46:10;1.75;;;1.17;;
32788;SDS011;19141;48.980;8.410;2023-02-01T22:48:37;1.95;;;1.27;;
32788;SDS011;19141;48.980;8.410;2023-02-01T22:51:04;3.30;;;1.73;;
32788;SDS011;19141;48.980;8.410;2023-02-01T22:53:31;4.55;;;1.63;;
32788;SDS011;19141;48.980;8.410;2023-02-01T22:56:04;1.35;;;1.20;;
32788;SDS011;19141;48.980;8.410;2023-02-01T22:58:30;1.33;;;1.10;;
